Time;durP1;ratioP1;P1;durP2;ratioP2;P2;SDS_P1;SDS_P2;PMS_P1;PMS_P2;Temp;Humidity;BMP_temperature;BMP_pressure;BME280_temperature;BME280_humidity;BME280_pressure;Samples;Min_cycle;Max_cycle;Signal;HPM_P1;HPM_P2
2024/04/07 00:00:48;;;;;;;11.07;2.28;;;20.20;99.80;;;;;;4993159;28;20029;-77
2024/04/07 00:03:17;;;;;;;13.60;2.65;;;20.20;99.90;;;;;;5021686;28;20049;-77
2024/04/07 00:05:44;;;;;;;9.93;2.53;;;20.20;99.90;;;;;;5023277;28;20026;-78
2024/04/07 00:08:09;;;;;;;11.85;3.13;;;20.10;99.90;;;;;;4998152;28;20146;-77
2024/04/07 00:10:37;;;;;;;8.30;3.25;;;20.00;99.90;;;;;;5014858;28;20029;-76
2024/04/07 00:13:04;;;;;;;17.33;2.65;;;20.00;99.90;;;;;;5012864;28;20030;-77
2024/04/07 00:15:30;;;;;;;15.55;2.97;;;20.00;99.90;;;;;;5017576;28;20104;-77
2024/04/07 00:17:55;;;;;;;10.05;2.40;;;20.20;99.90;;;;;;5017874;28;20025;-78
2024/04/07 00:20:21;;;;;;;10.70;2.85;;;20.20;99.90;;;;;;4999844;28;20034;-76
2024/04/07 00:22:47;;;;;;;18.08;3.33;;;20.00;99.90;;;;;;5003808;28;20521;-76
2024/04/07 00:25:12;;;;;;;14.93;3.20;;;19.70;99.90;;;;;;5020250;28;20061;-77
2024/04/07 00:27:38;;;;;;;17.67;3.17;;;19.60;99.90;;;;;;5018487;28;20030;-76
2024/04/07 00:30:05;;;;;;;11.68;3.30;;;19.40;99.90;;;;;;5040031;28;20082;-77
2024/04/07 00:32:30;;;;;;;18.73;3.05;;;19.40;99.90;;;;;;5024422;28;20038;-79
2024/04/07 00:34:56;;;;;;;10.52;2.78;;;19.30;99.90;;;;;;5018340;28;20050;-76
2024/04/07 00:37:22;;;;;;;10.45;3.05;;;19.30;99.90;;;;;;5006665;28;20033;-78
2024/04/07 00:39:47;;;;;;;13.82;3.17;;;19.30;99.90;;;;;;5020757;28;20036;-77
2024/04/07 00:42:13;;;;;;;16.80;3.72;;;19.20;99.90;;;;;;5022704;28;20112;-77
2024/04/07 00:44:39;;;;;;;14.85;3.45;;;19.10;99.90;;;;;;5003979;28;20037;-77
2024/04/07 00:47:05;;;;;;;17.55;2.25;;;19.00;99.90;;;;;;5020212;28;20130;-74
2024/04/07 00:49:33;;;;;;;16.45;3.28;;;19.00;99.90;;;;;;4999362;28;20048;-80
2024/04/07 00:51:58;;;;;;;15.68;3.28;;;18.90;99.90;;;;;;5031423;28;20021;-76
2024/04/07 00:54:28;;;;;;;12.40;2.42;;;18.90;99.90;;;;;;5038097;28;20025;-77
2024/04/07 00:56:54;;;;;;;12.52;2.92;;;18.80;99.90;;;;;;5037505;28;20041;-78
2024/04/07 00:59:19;;;;;;;8.45;2.42;;;18.80;99.90;;;;;;5019531;28;20405;-76
2024/04/07 01:01:45;;;;;;;15.13;2.72;;;18.80;99.90;;;;;;5025476;28;20033;-76
2024/04/07 01:04:11;;;;;;;16.15;2.67;;;18.80;99.90;;;;;;4996711;28;20462;-78
2024/04/07 01:06:37;;;;;;;10.57;2.28;;;18.80;99.90;;;;;;5015946;28;20041;-77
2024/04/07 01:09:02;;;;;;;11.73;2.53;;;18.70;99.90;;;;;;4999388;28;20087;-77
2024/04/07 01:11:29;;;;;;;12.57;2.28;;;18.60;99.90;;;;;;5014990;28;20037;-80
2024/04/07 01:13:55;;;;;;;15.63;2.45;;;18.60;99.90;;;;;;5031251;28;20032;-77
2024/04/07 01:16:21;;;;;;;6.95;2.10;;;18.50;99.90;;;;;;4997651;28;20053;-79
2024/04/07 01:18:47;;;;;;;9.55;1.83;;;18.40;99.90;;;;;;5015937;28;20183;-78
2024/04/07 01:21:13;;;;;;;8.48;1.95;;;18.40;99.90;;;;;;5015524;28;20144;-76
2024/04/07 01:23:38;;;;;;;14.63;2.03;;;18.40;99.90;;;;;;4997435;28;20161;-76
2024/04/07 01:26:04;;;;;;;9.35;1.52;;;18.40;99.90;;;;;;5013267;28;20482;-78
2024/04/07 01:28:30;;;;;;;13.88;1.73;;;18.20;99.90;;;;;;5013543;28;20022;-78
2024/04/07 01:30:55;;;;;;;6.40;1.17;;;18.20;99.90;;;;;;5020881;28;20045;-77
2024/04/07 01:33:21;;;;;;;6.47;1.52;;;18.10;99.90;;;;;;4997358;28;20116;-76
2024/04/07 01:35:48;;;;;;;6.22;1.35;;;18.10;99.90;;;;;;5016983;28;20061;-77
2024/04/07 01:38:17;;;;;;;9.43;1.73;;;18.10;99.90;;;;;;5032162;28;20071;-79
2024/04/07 01:40:44;;;;;;;5.93;1.50;;;18.10;99.90;;;;;;5040971;28;20087;-79
2024/04/07 01:43:10;;;;;;;4.25;1.23;;;18.10;99.90;;;;;;5021783;28;20116;-78
2024/04/07 01:45:36;;;;;;;5.60;1.52;;;18.00;99.90;;;;;;5002290;28;20461;-76
2024/04/07 01:48:01;;;;;;;8.30;1.52;;;18.00;99.90;;;;;;4996259;28;20115;-77
2024/04/07 01:50:27;;;;;;;7.45;1.30;;;18.10;99.90;;;;;;4989961;28;20033;-76
2024/04/07 01:52:53;;;;;;;5.88;1.45;;;18.10;99.90;;;;;;5016140;28;20041;-78
2024/04/07 01:55:19;;;;;;;5.30;1.17;;;18.10;99.90;;;;;;5012174;28;20030;-77
2024/04/07 01:57:44;;;;;;;11.02;1.50;;;18.00;99.90;;;;;;5016062;28;20044;-76
2024/04/07 02:00:10;;;;;;;3.83;0.80;;;17.90;99.90;;;;;;5020502;28;20022;-80
2024/04/07 02:02:39;;;;;;;8.85;1.10;;;17.80;99.90;;;;;;5030478;28;20034;-78
2024/04/07 02:05:05;;;;;;;10.98;0.85;;;17.70;99.90;;;;;;4995663;28;20029;-77
2024/04/07 02:07:35;;;;;;;5.38;1.33;;;17.50;99.90;;;;;;5024816;28;20022;-76
2024/04/07 02:10:02;;;;;;;7.72;1.23;;;17.30;99.90;;;;;;4997770;28;20045;-75
2024/04/07 02:12:28;;;;;;;3.22;1.20;;;17.30;99.90;;;;;;4994787;28;20042;-76
2024/04/07 02:14:54;;;;;;;6.75;0.90;;;17.30;99.90;;;;;;4995863;28;20100;-77
2024/04/07 02:17:20;;;;;;;3.63;0.80;;;17.30;99.90;;;;;;5016027;28;20036;-80
2024/04/07 02:19:51;;;;;;;3.58;1.35;;;17.30;99.90;;;;;;5012324;28;20105;-76
2024/04/07 02:22:18;;;;;;;3.55;0.77;;;17.20;99.90;;;;;;5014172;28;20036;-80
2024/04/07 02:24:44;;;;;;;2.50;0.80;;;17.10;99.90;;;;;;4991247;28;20125;-77
2024/04/07 02:27:10;;;;;;;3.92;1.00;;;16.90;99.90;;;;;;5017331;28;20071;-79
2024/04/07 02:29:35;;;;;;;2.70;0.93;;;16.90;99.90;;;;;;5000964;28;20030;-77
2024/04/07 02:32:01;;;;;;;5.43;0.85;;;16.70;99.90;;;;;;5000891;28;20050;-78
2024/04/07 02:34:27;;;;;;;3.63;0.90;;;16.70;99.90;;;;;;5026480;28;20026;-77
2024/04/07 02:36:52;;;;;;;8.20;1.00;;;16.80;99.90;;;;;;5014510;28;20141;-76
2024/04/07 02:39:19;;;;;;;8.15;1.20;;;16.90;99.90;;;;;;4997542;28;20414;-76
2024/04/07 02:41:46;;;;;;;1.58;0.60;;;17.00;99.90;;;;;;5012342;28;20568;-78
2024/04/07 02:44:12;;;;;;;3.65;1.00;;;17.00;99.90;;;;;;4992119;28;20049;-77
2024/04/07 02:49:22;;;;;;;1.38;0.40;;;16.80;99.90;;;;;;5011545;28;20073;-76
2024/04/07 02:51:47;;;;;;;3.47;0.50;;;16.70;99.90;;;;;;5005700;28;21264;-77
2024/04/07 02:54:13;;;;;;;2.13;0.50;;;16.50;99.90;;;;;;5018712;28;20037;-78
2024/04/07 02:56:39;;;;;;;2.33;0.60;;;16.50;99.90;;;;;;4995364;28;20025;-78
2024/04/07 02:59:04;;;;;;;3.67;0.85;;;16.40;99.90;;;;;;5011366;28;20099;-76
2024/04/07 03:01:30;;;;;;;2.42;0.60;;;16.20;99.90;;;;;;5011051;28;20033;-78
2024/04/07 03:03:56;;;;;;;1.73;0.57;;;16.10;99.90;;;;;;5011992;28;20044;-77
2024/04/07 03:06:21;;;;;;;2.90;0.70;;;16.10;99.90;;;;;;5011731;28;20026;-76
2024/04/07 03:08:49;;;;;;;4.18;0.55;;;16.00;99.90;;;;;;4991749;28;20044;-75
2024/04/07 03:11:15;;;;;;;1.70;0.63;;;16.00;99.90;;;;;;5000714;28;20033;-76
2024/04/07 03:13:40;;;;;;;7.70;0.70;;;15.90;99.90;;;;;;5020437;28;20061;-80
2024/04/07 03:16:10;;;;;;;2.67;0.45;;;15.90;99.90;;;;;;4994460;28;20037;-76
2024/04/07 03:18:36;;;;;;;2.13;0.60;;;16.10;99.90;;;;;;5010234;28;20034;-76
2024/04/07 03:21:05;;;;;;;3.42;0.47;;;16.20;99.90;;;;;;5003197;28;20482;-75
2024/04/07 03:23:31;;;;;;;2.72;0.52;;;16.20;99.90;;;;;;5012312;28;20042;-77
2024/04/07 03:25:57;;;;;;;5.13;0.73;;;16.20;99.90;;;;;;4998740;28;20508;-76
2024/04/07 03:28:23;;;;;;;2.00;0.70;;;16.30;99.90;;;;;;5014811;28;20087;-78
2024/04/07 03:30:48;;;;;;;4.97;0.50;;;16.40;99.90;;;;;;5013905;28;20478;-76
2024/04/07 03:33:14;;;;;;;3.67;0.60;;;16.40;99.90;;;;;;5020497;28;20091;-78
2024/04/07 03:35:40;;;;;;;2.05;0.57;;;16.50;99.90;;;;;;5028967;28;20054;-78
2024/04/07 03:38:05;;;;;;;1.55;0.50;;;16.50;99.90;;;;;;5019197;28;20053;-76
2024/04/07 03:40:31;;;;;;;2.25;0.50;;;16.50;99.90;;;;;;5014203;28;20029;-77
2024/04/07 03:42:57;;;;;;;2.83;0.70;;;16.60;99.90;;;;;;4985844;28;20414;-78
2024/04/07 03:45:22;;;;;;;2.88;0.70;;;16.50;99.90;;;;;;5007179;28;20038;-77
2024/04/07 03:47:48;;;;;;;2.38;0.55;;;16.50;99.90;;;;;;5005769;28;20047;-76
2024/04/07 03:50:14;;;;;;;3.72;0.80;;;16.30;99.90;;;;;;4991558;28;20360;-77
2024/04/07 03:52:40;;;;;;;3.10;0.73;;;16.10;99.90;;;;;;5011856;28;20033;-78
2024/04/07 03:55:06;;;;;;;5.40;0.80;;;15.60;99.90;;;;;;5013186;28;20033;-78
2024/04/07 03:57:32;;;;;;;2.40;0.50;;;15.40;99.90;;;;;;5013716;28;20025;-76
2024/04/07 03:59:58;;;;;;;2.30;0.57;;;15.30;99.90;;;;;;5030138;28;20028;-76
2024/04/07 04:02:31;;;;;;;1.70;0.52;;;15.30;99.90;;;;;;5026904;28;20041;-77
2024/04/07 04:05:00;;;;;;;2.83;0.55;;;15.50;99.90;;;;;;5028231;28;20049;-78
2024/04/07 04:07:27;;;;;;;2.40;0.85;;;15.50;99.90;;;;;;5027719;28;20029;-78
2024/04/07 04:09:54;;;;;;;5.57;0.95;;;15.50;99.90;;;;;;5017293;28;20081;-78
2024/04/07 04:12:24;;;;;;;3.17;0.82;;;15.60;99.90;;;;;;5013547;28;20124;-77
2024/04/07 04:14:53;;;;;;;2.88;0.85;;;15.70;99.90;;;;;;5016825;28;20049;-78
2024/04/07 04:17:20;;;;;;;1.88;0.70;;;15.90;99.90;;;;;;5013229;28;20034;-79
2024/04/07 04:19:46;;;;;;;2.05;0.47;;;15.90;99.90;;;;;;5025909;28;20490;-77
2024/04/07 04:22:12;;;;;;;4.18;0.68;;;15.90;99.90;;;;;;5017827;28;20057;-75
2024/04/07 04:24:37;;;;;;;2.15;0.57;;;15.90;99.90;;;;;;5030151;28;20461;-76
2024/04/07 04:27:04;;;;;;;6.28;1.10;;;16.00;99.90;;;;;;5018143;28;20414;-78
2024/04/07 04:29:31;;;;;;;4.95;1.10;;;16.10;99.90;;;;;;5012134;28;20054;-77
2024/04/07 04:31:57;;;;;;;6.50;0.68;;;16.00;99.90;;;;;;5004064;28;20037;-77
2024/04/07 04:34:23;;;;;;;2.58;0.90;;;16.00;99.90;;;;;;5016414;28;20386;-76
2024/04/07 04:36:50;;;;;;;4.43;0.98;;;15.90;99.90;;;;;;4999577;28;20064;-76
2024/04/07 04:39:16;;;;;;;4.63;1.02;;;16.00;99.90;;;;;;4999806;28;20037;-79
2024/04/07 04:41:45;;;;;;;6.90;0.93;;;15.90;99.90;;;;;;5001908;28;20046;-77
2024/04/07 04:44:14;;;;;;;4.05;0.43;;;15.80;99.90;;;;;;5016598;28;20037;-79
2024/04/07 04:46:44;;;;;;;4.60;0.80;;;15.90;99.90;;;;;;4997864;28;20510;-78
2024/04/07 04:49:10;;;;;;;5.85;1.30;;;15.90;99.90;;;;;;5025707;28;20029;-79
2024/04/07 04:51:36;;;;;;;7.43;1.33;;;15.90;99.90;;;;;;5014871;28;20025;-76
2024/04/07 04:54:02;;;;;;;5.55;1.13;;;15.90;99.90;;;;;;5004345;28;20044;-78
2024/04/07 04:56:28;;;;;;;3.25;0.70;;;15.90;99.90;;;;;;5018395;28;20033;-75
2024/04/07 04:58:56;;;;;;;7.43;1.10;;;15.80;99.90;;;;;;5039494;28;20030;-77
2024/04/07 05:01:23;;;;;;;4.18;0.88;;;15.90;99.90;;;;;;5020944;28;20172;-75
2024/04/07 05:03:48;;;;;;;6.45;1.00;;;15.80;99.90;;;;;;5018805;28;20038;-77
2024/04/07 05:06:16;;;;;;;3.08;1.05;;;15.90;99.90;;;;;;5016734;28;20128;-77
2024/04/07 05:08:42;;;;;;;5.47;1.30;;;15.80;99.90;;;;;;5016870;28;20032;-77
2024/04/07 05:11:09;;;;;;;4.57;1.05;;;15.90;99.90;;;;;;4992392;28;20030;-77
2024/04/07 05:13:35;;;;;;;4.60;1.23;;;15.80;99.90;;;;;;5014588;28;20032;-76
2024/04/07 05:16:02;;;;;;;4.88;1.27;;;15.80;99.90;;;;;;4997339;28;20038;-77
2024/04/07 05:18:28;;;;;;;4.55;1.30;;;15.70;99.90;;;;;;5000361;28;20126;-77
2024/04/07 05:20:55;;;;;;;3.97;0.95;;;15.70;99.90;;;;;;5014030;28;20034;-78
2024/04/07 05:23:21;;;;;;;8.27;1.65;;;15.70;99.90;;;;;;5006314;28;20044;-77
2024/04/07 05:25:47;;;;;;;3.40;1.10;;;15.70;99.90;;;;;;5029792;28;20402;-76
2024/04/07 05:28:12;;;;;;;4.38;1.35;;;15.80;99.90;;;;;;4997609;28;20565;-77
2024/04/07 05:30:39;;;;;;;6.55;1.30;;;15.80;99.90;;;;;;5018131;28;20032;-76
2024/04/07 05:33:06;;;;;;;7.90;1.85;;;15.80;99.90;;;;;;5015033;28;20034;-76
2024/04/07 05:35:32;;;;;;;7.68;1.20;;;15.70;99.90;;;;;;4998882;28;20104;-76
2024/04/07 05:37:58;;;;;;;5.35;1.45;;;15.80;99.90;;;;;;5017895;28;20095;-78
2024/04/07 05:40:24;;;;;;;6.80;1.20;;;15.70;99.90;;;;;;4993839;28;20946;-77
2024/04/07 05:42:51;;;;;;;4.50;1.08;;;15.70;99.90;;;;;;5010294;28;20124;-78
2024/04/07 05:45:17;;;;;;;5.55;1.35;;;15.60;99.90;;;;;;5029332;28;20110;-77
2024/04/07 05:47:49;;;;;;;13.30;1.20;;;15.70;99.90;;;;;;5023951;28;20060;-78
2024/04/07 05:50:15;;;;;;;4.50;1.48;;;15.60;99.90;;;;;;5012670;28;20032;-76
2024/04/07 05:52:42;;;;;;;4.70;1.35;;;15.70;99.90;;;;;;4988787;28;20037;-77
2024/04/07 05:55:09;;;;;;;7.78;1.60;;;15.70;99.90;;;;;;4996164;28;20133;-80
2024/04/07 05:57:36;;;;;;;5.22;1.25;;;15.70;99.90;;;;;;5010598;28;20514;-80
2024/04/07 06:00:08;;;;;;;6.60;1.27;;;15.70;99.90;;;;;;5018567;28;20402;-78
2024/04/07 06:02:35;;;;;;;7.35;1.25;;;15.80;99.90;;;;;;4996723;28;20513;-77
2024/04/07 06:05:01;;;;;;;6.85;1.58;;;15.80;99.90;;;;;;4995836;28;20033;-78
2024/04/07 06:07:27;;;;;;;9.65;2.08;;;15.80;99.90;;;;;;5013528;28;20215;-77
2024/04/07 06:09:53;;;;;;;9.43;1.80;;;15.80;99.90;;;;;;4996643;28;20140;-78
2024/04/07 06:12:18;;;;;;;7.20;1.30;;;15.70;99.90;;;;;;4997096;28;20034;-77
2024/04/07 06:14:44;;;;;;;7.25;1.45;;;15.70;99.90;;;;;;5003012;28;20043;-78
2024/04/07 06:17:10;;;;;;;9.90;1.67;;;15.80;99.90;;;;;;5003629;28;20478;-77
2024/04/07 06:19:35;;;;;;;5.03;1.25;;;15.80;99.90;;;;;;5005998;28;20026;-76
2024/04/07 06:22:01;;;;;;;6.82;1.30;;;15.80;99.90;;;;;;5016567;28;20047;-77
2024/04/07 06:24:26;;;;;;;6.10;1.30;;;15.80;99.90;;;;;;5007425;28;20036;-79
2024/04/07 06:26:53;;;;;;;6.65;1.48;;;15.90;99.90;;;;;;5017903;28;20092;-76
2024/04/07 06:29:19;;;;;;;6.40;1.48;;;16.00;99.90;;;;;;5009257;28;20065;-78
2024/04/07 06:31:44;;;;;;;4.88;0.90;;;16.00;99.90;;;;;;5000082;28;20022;-76
2024/04/07 06:34:10;;;;;;;3.92;0.98;;;16.10;99.90;;;;;;5035790;28;20029;-80
2024/04/07 06:36:36;;;;;;;5.53;1.30;;;16.00;99.90;;;;;;5000775;28;20053;-77
2024/04/07 06:39:01;;;;;;;8.77;1.65;;;15.90;99.90;;;;;;5026279;28;20097;-79
2024/04/07 06:41:27;;;;;;;5.78;1.25;;;15.90;99.90;;;;;;5016485;28;20065;-80
2024/04/07 06:43:53;;;;;;;8.40;1.50;;;15.80;99.90;;;;;;5025307;28;20041;-76
2024/04/07 06:46:18;;;;;;;8.07;1.30;;;15.80;99.90;;;;;;5003752;28;20116;-79
2024/04/07 06:48:44;;;;;;;6.50;1.30;;;15.80;99.90;;;;;;5009708;28;20034;-80
2024/04/07 06:51:10;;;;;;;6.65;1.60;;;15.80;99.90;;;;;;5004877;28;20032;-78
2024/04/07 06:53:36;;;;;;;5.60;1.35;;;15.80;99.90;;;;;;5002255;28;20057;-77
2024/04/07 06:56:02;;;;;;;7.57;2.00;;;15.80;99.90;;;;;;5029611;28;20036;-77
2024/04/07 06:58:30;;;;;;;5.57;1.13;;;16.00;99.90;;;;;;5022006;28;20029;-81
2024/04/07 07:00:56;;;;;;;8.93;1.63;;;16.00;99.90;;;;;;4989718;28;20033;-76
2024/04/07 07:03:22;;;;;;;7.15;1.40;;;16.20;99.90;;;;;;5014056;28;20034;-78
2024/04/07 07:05:48;;;;;;;8.15;1.17;;;16.10;99.90;;;;;;4986900;28;20173;-79
2024/04/07 07:08:15;;;;;;;7.03;1.17;;;16.10;99.90;;;;;;5013780;28;20026;-76
2024/04/07 07:10:40;;;;;;;5.43;1.25;;;16.10;99.90;;;;;;5021640;28;20080;-80
2024/04/07 07:13:06;;;;;;;7.57;1.27;;;16.10;99.90;;;;;;4985581;28;20492;-80
2024/04/07 07:15:35;;;;;;;13.32;1.35;;;16.10;99.90;;;;;;5000032;28;20394;-79
2024/04/07 07:18:01;;;;;;;5.47;1.48;;;16.10;99.90;;;;;;5036560;28;20021;-77
2024/04/07 07:20:26;;;;;;;3.50;1.48;;;16.10;99.90;;;;;;5020612;28;20119;-78
2024/04/07 07:22:52;;;;;;;9.73;1.10;;;16.10;99.90;;;;;;4998387;28;20061;-78
2024/04/07 07:25:18;;;;;;;8.52;1.25;;;16.20;99.90;;;;;;5018133;28;20041;-76
2024/04/07 07:27:43;;;;;;;6.38;1.30;;;16.30;99.90;;;;;;5019574;28;20036;-78
2024/04/07 07:30:10;;;;;;;9.10;1.40;;;16.40;99.90;;;;;;5002472;28;20057;-78
2024/04/07 07:32:37;;;;;;;7.00;1.13;;;16.30;99.90;;;;;;5015349;28;20029;-83
2024/04/07 07:35:03;;;;;;;6.00;1.52;;;16.50;99.90;;;;;;5035342;28;20042;-76
2024/04/07 07:37:28;;;;;;;11.50;1.48;;;16.50;99.90;;;;;;5017550;28;20022;-76
2024/04/07 07:39:54;;;;;;;4.68;1.02;;;16.60;99.90;;;;;;4999928;28;20044;-77
2024/04/07 07:42:20;;;;;;;4.80;1.00;;;16.60;99.90;;;;;;4990605;28;20431;-77
2024/04/07 07:44:45;;;;;;;6.53;1.55;;;16.70;99.90;;;;;;5019035;28;20462;-75
2024/04/07 07:47:11;;;;;;;7.88;1.48;;;16.70;99.90;;;;;;4997774;28;20042;-78
2024/04/07 07:49:37;;;;;;;7.60;1.42;;;16.90;99.90;;;;;;4997378;28;20030;-76
2024/04/07 07:52:02;;;;;;;6.07;1.33;;;16.90;99.90;;;;;;5005665;28;20029;-77
2024/04/07 07:54:28;;;;;;;7.57;1.30;;;16.90;99.90;;;;;;5035119;28;20025;-77
2024/04/07 07:56:54;;;;;;;8.27;1.83;;;16.90;99.90;;;;;;5018245;28;20034;-76
2024/04/07 07:59:19;;;;;;;7.32;1.20;;;17.10;99.90;;;;;;4980070;28;20116;-76
2024/04/07 08:01:46;;;;;;;5.53;1.40;;;17.10;99.90;;;;;;5017178;28;20060;-77
2024/04/07 08:04:11;;;;;;;7.72;1.55;;;17.30;99.90;;;;;;4996287;28;20041;-77
2024/04/07 08:06:39;;;;;;;8.68;1.42;;;17.20;99.90;;;;;;5031239;28;20041;-76
2024/04/07 08:09:04;;;;;;;10.27;2.80;;;17.20;99.90;;;;;;4987345;28;20034;-69
2024/04/07 08:11:30;;;;;;;5.55;1.60;;;17.20;99.90;;;;;;5000397;28;20033;-75
2024/04/07 08:13:56;;;;;;;10.20;1.48;;;17.30;99.90;;;;;;5003757;28;20038;-76
2024/04/07 08:16:22;;;;;;;3.45;1.17;;;17.40;99.90;;;;;;4997702;28;20098;-75
2024/04/07 08:18:47;;;;;;;6.93;1.35;;;17.40;99.90;;;;;;4985737;28;20034;-74
2024/04/07 08:21:13;;;;;;;9.85;1.92;;;17.60;99.90;;;;;;5014021;28;20037;-75
2024/04/07 08:23:38;;;;;;;4.18;0.85;;;17.60;99.90;;;;;;5015339;28;20029;-76
2024/04/07 08:26:04;;;;;;;8.27;1.25;;;17.50;99.90;;;;;;5003755;28;20524;-75
2024/04/07 08:28:30;;;;;;;8.65;1.70;;;17.50;99.90;;;;;;5012555;28;20034;-74
2024/04/07 08:30:57;;;;;;;7.90;1.45;;;17.60;99.90;;;;;;5006588;28;20022;-75
2024/04/07 08:33:22;;;;;;;10.70;1.88;;;17.60;99.90;;;;;;5000339;28;20033;-78
2024/04/07 08:35:48;;;;;;;9.68;1.92;;;17.60;99.90;;;;;;5010745;28;20399;-75
2024/04/07 08:38:14;;;;;;;5.55;1.50;;;17.70;99.90;;;;;;4996090;28;20117;-75
2024/04/07 08:40:41;;;;;;;5.32;1.63;;;17.80;99.90;;;;;;4994866;28;20030;-78
2024/04/07 08:43:08;;;;;;;3.58;1.25;;;18.00;99.90;;;;;;5015468;28;20064;-74
2024/04/07 08:45:34;;;;;;;6.00;1.83;;;18.10;99.90;;;;;;5036121;28;20045;-76
2024/04/07 08:48:01;;;;;;;8.40;2.03;;;18.10;99.90;;;;;;5034118;28;20033;-74
2024/04/07 08:50:27;;;;;;;5.07;1.23;;;18.10;99.90;;;;;;4999796;28;20117;-74
2024/04/07 08:52:55;;;;;;;8.10;1.35;;;18.30;99.90;;;;;;5004235;28;20048;-73
2024/04/07 08:55:22;;;;;;;4.35;1.10;;;18.40;99.90;;;;;;5020753;28;20068;-74
2024/04/07 08:57:49;;;;;;;6.78;1.63;;;18.50;99.90;;;;;;5018123;28;20033;-75
2024/04/07 09:00:16;;;;;;;6.95;1.58;;;18.60;99.90;;;;;;5035114;28;20367;-74
2024/04/07 09:02:42;;;;;;;8.32;2.05;;;18.80;99.90;;;;;;5022341;28;20087;-74
2024/04/07 09:05:08;;;;;;;5.57;1.42;;;18.80;99.90;;;;;;5013570;28;20034;-75
2024/04/07 09:07:34;;;;;;;3.78;1.38;;;18.80;99.90;;;;;;5017254;28;20042;-73
2024/04/07 09:10:00;;;;;;;6.28;1.60;;;18.90;99.90;;;;;;5002403;28;20034;-75
2024/04/07 09:12:26;;;;;;;6.38;1.70;;;18.90;99.90;;;;;;5017189;28;20049;-77
2024/04/07 09:14:53;;;;;;;5.95;1.13;;;19.00;99.90;;;;;;5025138;28;20152;-73
2024/04/07 09:17:18;;;;;;;3.78;1.35;;;19.00;99.90;;;;;;4992325;28;20068;-74
2024/04/07 09:19:44;;;;;;;3.30;1.00;;;19.10;99.90;;;;;;5005063;28;20034;-73
2024/04/07 09:22:10;;;;;;;5.85;1.50;;;19.20;99.90;;;;;;5025382;28;20032;-74
2024/04/07 09:24:38;;;;;;;9.90;1.73;;;19.40;99.90;;;;;;5018832;28;20042;-73
2024/04/07 09:27:06;;;;;;;4.05;1.27;;;19.70;99.90;;;;;;5015776;28;20026;-74
2024/04/07 09:29:34;;;;;;;5.80;1.63;;;19.90;99.90;;;;;;5016767;28;20498;-73
2024/04/07 09:32:01;;;;;;;4.82;1.50;;;20.30;99.90;;;;;;5016674;28;20037;-74
2024/04/07 09:34:30;;;;;;;4.40;1.23;;;20.50;99.90;;;;;;5032570;28;20052;-72
2024/04/07 09:36:56;;;;;;;6.20;0.82;;;20.00;99.90;;;;;;5034053;28;20054;-72
2024/04/07 09:39:24;;;;;;;5.25;1.35;;;20.40;99.90;;;;;;5001251;28;20026;-73
2024/04/07 09:41:52;;;;;;;5.07;1.77;;;20.80;99.90;;;;;;5022033;28;20053;-74
2024/04/07 09:44:21;;;;;;;6.10;1.58;;;21.20;99.90;;;;;;5040406;28;20033;-75
2024/04/07 09:46:47;;;;;;;4.47;1.17;;;21.30;99.90;;;;;;5022654;28;20043;-73
2024/04/07 09:49:14;;;;;;;4.40;1.00;;;21.30;99.90;;;;;;5016683;28;20127;-73
2024/04/07 09:51:54;;;;;;;4.80;1.38;;;21.60;99.90;;;;;;5013288;28;20030;-73
2024/04/07 09:54:31;;;;;;;3.58;1.08;;;22.20;99.90;;;;;;5029785;28;20040;-72
2024/04/07 09:56:58;;;;;;;3.95;1.10;;;22.30;99.90;;;;;;5025738;28;20017;-74
2024/04/07 09:59:26;;;;;;;4.38;1.30;;;22.10;99.90;;;;;;5015828;28;20521;-73
2024/04/07 10:01:53;;;;;;;2.60;0.90;;;22.20;99.90;;;;;;5032402;28;20021;-73
2024/04/07 10:04:24;;;;;;;2.03;0.60;;;22.70;99.40;;;;;;5014192;28;20037;-72
2024/04/07 10:06:50;;;;;;;5.65;1.30;;;23.00;98.90;;;;;;5013982;28;20397;-73
2024/04/07 10:09:16;;;;;;;4.03;1.27;;;23.20;98.50;;;;;;5011105;28;20060;-74
2024/04/07 10:11:49;;;;;;;2.75;1.10;;;23.80;98.00;;;;;;5030863;28;20517;-73
2024/04/07 10:14:15;;;;;;;8.23;1.50;;;24.30;97.20;;;;;;5013200;28;20040;-73
2024/04/07 10:16:43;;;;;;;5.15;1.77;;;24.40;96.80;;;;;;5008315;28;20029;-74
2024/04/07 10:19:09;;;;;;;4.45;1.50;;;24.30;96.50;;;;;;5017411;28;20374;-75
2024/04/07 10:21:34;;;;;;;3.03;1.15;;;24.40;96.30;;;;;;5005147;28;20049;-75
2024/04/07 10:24:02;;;;;;;4.05;1.30;;;24.90;95.30;;;;;;5011306;28;20045;-73
2024/04/07 10:26:28;;;;;;;4.30;0.93;;;24.30;95.40;;;;;;5004315;28;20049;-73
2024/04/07 10:28:56;;;;;;;4.00;1.45;;;23.80;96.10;;;;;;5017345;28;20026;-74
2024/04/07 10:31:29;;;;;;;3.72;1.15;;;23.60;95.90;;;;;;4999848;28;20026;-73
2024/04/07 10:33:55;;;;;;;4.68;1.55;;;23.80;95.60;;;;;;5001326;28;20048;-74
2024/04/07 10:36:22;;;;;;;4.75;1.20;;;23.90;95.50;;;;;;5027344;28;20531;-74
2024/04/07 10:38:58;;;;;;;10.55;1.50;;;24.30;95.10;;;;;;5032408;28;20044;-73
2024/04/07 10:41:30;;;;;;;4.65;1.10;;;24.60;95.50;;;;;;5022099;28;20064;-77
2024/04/07 10:43:56;;;;;;;2.85;1.10;;;24.70;94.40;;;;;;5007877;28;20121;-76
2024/04/07 10:46:23;;;;;;;2.95;1.00;;;24.50;94.70;;;;;;5034753;28;20061;-75
2024/04/07 10:48:49;;;;;;;2.78;1.17;;;25.00;94.30;;;;;;5025828;28;20046;-77
2024/04/07 10:51:16;;;;;;;4.57;1.27;;;25.40;93.30;;;;;;5033019;28;20057;-74
2024/04/07 10:54:04;;;;;;;5.63;0.93;;;25.10;92.90;;;;;;5027560;28;20090;-77
2024/04/07 10:56:30;;;;;;;2.92;0.98;;;26.00;92.20;;;;;;5011198;28;20502;-76
2024/04/07 10:58:57;;;;;;;2.65;0.90;;;26.30;91.60;;;;;;5027179;28;20512;-76
2024/04/07 11:01:24;;;;;;;1.35;0.70;;;27.00;90.90;;;;;;4999262;28;20040;-77
2024/04/07 11:03:55;;;;;;;2.10;1.00;;;27.10;89.80;;;;;;5012532;28;20035;-75
2024/04/07 11:06:23;;;;;;;2.47;0.68;;;27.20;89.90;;;;;;5016785;28;20060;-76
2024/04/07 11:08:49;;;;;;;4.95;1.10;;;26.50;88.60;;;;;;5031900;28;20028;-75
2024/04/07 11:11:15;;;;;;;6.20;0.70;;;27.00;88.10;;;;;;5006555;28;20033;-75
2024/04/07 11:13:41;;;;;;;4.13;1.00;;;27.80;85.70;;;;;;5028158;28;20501;-76
2024/04/07 11:16:09;;;;;;;3.08;0.70;;;28.00;84.00;;;;;;5013551;28;20086;-74
2024/04/07 11:18:37;;;;;;;3.58;0.98;;;27.60;83.80;;;;;;5032333;28;20104;-75
2024/04/07 11:21:04;;;;;;;1.88;0.73;;;27.40;84.80;;;;;;4999715;28;20037;-75
2024/04/07 11:23:32;;;;;;;2.65;0.90;;;27.40;84.50;;;;;;5016063;28;20032;-75
2024/04/07 11:25:59;;;;;;;3.92;1.02;;;28.20;83.80;;;;;;5012320;28;20029;-73
2024/04/07 11:28:25;;;;;;;2.63;1.05;;;28.20;83.60;;;;;;5007032;28;20029;-77
2024/04/07 11:30:54;;;;;;;4.85;1.10;;;28.10;82.60;;;;;;4998896;28;20021;-77
2024/04/07 11:33:20;;;;;;;2.80;1.20;;;28.10;82.80;;;;;;4999350;28;20041;-77
2024/04/07 11:35:46;;;;;;;3.65;0.82;;;27.60;82.70;;;;;;4982495;28;20091;-76
2024/04/07 11:38:12;;;;;;;7.13;1.00;;;28.00;82.60;;;;;;5006988;28;20049;-75
2024/04/07 11:40:39;;;;;;;4.47;1.40;;;27.90;82.00;;;;;;4979776;28;20061;-77
2024/04/07 11:43:04;;;;;;;2.15;0.95;;;27.30;82.00;;;;;;4986722;28;20026;-77
2024/04/07 11:45:33;;;;;;;1.98;0.77;;;27.10;81.40;;;;;;4994747;28;20398;-74
2024/04/07 11:47:59;;;;;;;4.50;1.42;;;26.90;81.20;;;;;;5002179;28;20038;-75
2024/04/07 11:50:25;;;;;;;4.40;1.23;;;26.80;81.90;;;;;;5005738;28;20081;-77
2024/04/07 11:52:51;;;;;;;1.60;0.75;;;26.90;81.50;;;;;;5001011;28;20034;-75
2024/04/07 11:55:17;;;;;;;9.35;0.70;;;27.70;80.90;;;;;;4998009;28;20030;-68
2024/04/07 11:57:43;;;;;;;2.33;0.82;;;27.90;81.30;;;;;;5007339;28;20698;-76
2024/04/07 12:00:10;;;;;;;2.72;0.93;;;28.00;78.30;;;;;;5013244;28;20054;-74
2024/04/07 12:02:36;;;;;;;2.03;0.75;;;28.20;77.60;;;;;;4995374;28;20041;-74
2024/04/07 12:05:08;;;;;;;5.13;1.10;;;28.30;77.40;;;;;;5005188;28;20042;-76
2024/04/07 12:07:34;;;;;;;3.63;0.90;;;28.20;77.80;;;;;;5007202;28;20022;-75
2024/04/07 12:10:00;;;;;;;2.42;0.88;;;27.10;80.50;;;;;;5012365;28;20081;-75
2024/04/07 12:12:27;;;;;;;1.40;0.63;;;26.20;81.10;;;;;;5009828;28;20022;-75
2024/04/07 12:14:54;;;;;;;1.40;0.52;;;25.80;79.40;;;;;;4996461;28;20090;-77
2024/04/07 12:17:19;;;;;;;3.00;0.82;;;25.80;79.10;;;;;;5000227;28;20050;-77
2024/04/07 12:19:45;;;;;;;1.50;0.80;;;25.70;79.10;;;;;;4987289;28;20033;-77
2024/04/07 12:22:18;;;;;;;1.42;0.80;;;27.00;78.40;;;;;;4998067;28;20030;-75
2024/04/07 12:24:45;;;;;;;2.25;0.85;;;27.60;77.90;;;;;;5007752;28;20030;-76
2024/04/07 12:27:11;;;;;;;3.65;1.00;;;28.10;76.60;;;;;;5002286;28;20406;-77
2024/04/07 12:29:39;;;;;;;2.72;0.60;;;27.90;75.90;;;;;;5010599;28;20059;-75
2024/04/07 12:32:06;;;;;;;2.38;0.60;;;27.40;76.50;;;;;;4996043;28;20034;-76
2024/04/07 12:34:31;;;;;;;1.73;0.50;;;27.30;76.00;;;;;;5015456;28;20086;-74
2024/04/07 12:36:57;;;;;;;2.90;0.85;;;28.00;75.20;;;;;;4982380;28;20589;-75
2024/04/07 12:39:23;;;;;;;2.45;0.77;;;28.10;74.40;;;;;;4983575;28;20708;-75
2024/04/07 12:41:51;;;;;;;2.33;0.60;;;27.20;74.60;;;;;;4984681;28;20116;-77
2024/04/07 12:44:18;;;;;;;3.00;0.85;;;26.10;76.80;;;;;;5004572;28;20034;-76